Time;durP1;ratioP1;P1;durP2;ratioP2;P2;SDS_P1;SDS_P2;PMS_P1;PMS_P2;Temp;Humidity;BMP_temperature;BMP_pressure;BME280_temperature;BME280_humidity;BME280_pressure;Samples;Min_cycle;Max_cycle;Signal;HPM_P1;HPM_P2
2022/10/16 00:00:38;;;;;;;16.88;8.52;;;;;;;;;;5001314;28;20408;-67
2022/10/16 00:03:24;;;;;;;13.10;8.80;;;;;;;;;;5003070;28;20050;-69
2022/10/16 00:05:50;;;;;;;17.90;8.50;;;;;;;;;;5012467;28;20100;-67
2022/10/16 00:08:16;;;;;;;18.48;7.78;;;;;;;;;;5000306;28;20038;-68
2022/10/16 00:10:42;;;;;;;12.23;7.60;;;;;;;;;;4987719;28;20385;-68
2022/10/16 00:13:08;;;;;;;10.40;7.80;;;;;;;;;;5005586;28;20406;-73
2022/10/16 00:15:36;;;;;;;10.65;7.35;;;;;;;;;;5000560;28;20038;-70
2022/10/16 00:18:03;;;;;;;11.73;7.15;;;;;;;;;;5005596;28;20046;-70
2022/10/16 00:20:31;;;;;;;13.95;7.22;;;;;;;;;;5012332;28;20056;-67
2022/10/16 00:22:57;;;;;;;12.85;7.50;;;;;;;;;;4997904;28;20047;-67
2022/10/16 00:25:23;;;;;;;13.70;7.50;;;;;;;;;;5004152;28;20046;-68
2022/10/16 00:27:49;;;;;;;11.45;7.32;;;;;;;;;;4992165;28;20392;-69
2022/10/16 00:30:15;;;;;;;15.25;7.88;;;;;;;;;;5001593;28;20041;-68
2022/10/16 00:32:40;;;;;;;15.45;7.88;;;;;;;;;;5009109;28;20415;-67
2022/10/16 00:35:07;;;;;;;12.65;8.30;;;;;;;;;;5009091;28;20041;-68
2022/10/16 00:37:32;;;;;;;16.08;8.25;;;;;;;;;;5003004;28;20104;-70
2022/10/16 00:39:58;;;;;;;13.40;8.02;;;;;;;;;;4994837;28;20068;-67
2022/10/16 00:42:24;;;;;;;14.18;7.93;;;;;;;;;;5000426;28;20081;-67
2022/10/16 00:44:56;;;;;;;13.90;8.63;;;;;;;;;;5001228;28;20046;-68
2022/10/16 00:47:48;;;;;;;14.90;8.27;;;;;;;;;;4995075;28;20046;-67
2022/10/16 00:50:29;;;;;;;15.88;8.60;;;;;;;;;;4993749;28;20408;-69
2022/10/16 00:52:56;;;;;;;13.52;8.20;;;;;;;;;;4999005;28;20049;-66
2022/10/16 00:55:23;;;;;;;18.73;7.95;;;;;;;;;;5006498;28;20045;-67
2022/10/16 00:57:51;;;;;;;11.40;8.13;;;;;;;;;;5006979;28;20488;-67
2022/10/16 01:00:23;;;;;;;10.70;7.60;;;;;;;;;;5007377;28;20522;-68
2022/10/16 01:02:54;;;;;;;15.85;8.05;;;;;;;;;;4999483;28;20112;-69
2022/10/16 01:05:23;;;;;;;13.20;7.50;;;;;;;;;;4999128;28;20050;-67
2022/10/16 01:08:18;;;;;;;14.30;6.95;;;;;;;;;;4999218;28;20068;-68
2022/10/16 01:11:13;;;;;;;13.68;7.32;;;;;;;;;;4999365;28;20049;-68
2022/10/16 01:13:43;;;;;;;9.65;7.45;;;;;;;;;;4982873;28;20042;-68
2022/10/16 01:16:15;;;;;;;10.52;7.00;;;;;;;;;;4978000;28;20171;-67
2022/10/16 01:18:48;;;;;;;15.00;7.82;;;;;;;;;;4976803;28;20038;-66
2022/10/16 01:21:24;;;;;;;12.40;7.35;;;;;;;;;;4984075;28;20053;-67
2022/10/16 01:24:15;;;;;;;10.55;7.15;;;;;;;;;;4989312;28;20093;-70
2022/10/16 01:27:02;;;;;;;10.95;7.00;;;;;;;;;;4983583;28;20132;-68
2022/10/16 01:29:48;;;;;;;12.50;7.75;;;;;;;;;;4978237;28;20088;-69
2022/10/16 01:32:29;;;;;;;15.27;8.10;;;;;;;;;;4977797;28;20062;-69
2022/10/16 01:35:09;;;;;;;17.60;8.82;;;;;;;;;;4975792;28;20050;-66
2022/10/16 01:37:40;;;;;;;13.25;8.23;;;;;;;;;;4974131;28;20054;-68
2022/10/16 01:40:10;;;;;;;13.20;7.85;;;;;;;;;;4981241;28;20466;-66
2022/10/16 01:42:43;;;;;;;11.43;7.88;;;;;;;;;;4987085;28;20129;-67
2022/10/16 01:45:12;;;;;;;14.95;8.05;;;;;;;;;;4986403;28;20047;-70
2022/10/16 01:47:40;;;;;;;14.27;8.35;;;;;;;;;;4983357;28;20054;-67
2022/10/16 01:50:08;;;;;;;13.15;7.88;;;;;;;;;;4997124;28;20053;-66
2022/10/16 01:52:41;;;;;;;15.80;7.95;;;;;;;;;;5013981;28;20046;-66
2022/10/16 01:55:10;;;;;;;13.48;7.82;;;;;;;;;;5007791;28;20349;-68
2022/10/16 01:57:40;;;;;;;10.70;7.25;;;;;;;;;;5006654;28;20511;-67
2022/10/16 02:00:10;;;;;;;16.17;7.75;;;;;;;;;;5006481;28;20395;-66
2022/10/16 02:02:48;;;;;;;11.15;7.63;;;;;;;;;;5002451;28;20137;-72
2022/10/16 02:05:18;;;;;;;10.70;7.78;;;;;;;;;;5000454;28;20482;-67
2022/10/16 02:07:44;;;;;;;13.50;7.53;;;;;;;;;;5001333;28;20061;-68
2022/10/16 02:10:11;;;;;;;16.55;8.07;;;;;;;;;;5003737;28;20042;-66
2022/10/16 02:12:41;;;;;;;11.50;7.93;;;;;;;;;;5010725;28;20052;-67
2022/10/16 02:15:10;;;;;;;12.43;8.38;;;;;;;;;;5009616;28;20526;-66
2022/10/16 02:17:36;;;;;;;20.90;9.60;;;;;;;;;;4999360;28;20125;-67
2022/10/16 02:20:04;;;;;;;13.13;9.65;;;;;;;;;;5005485;28;20464;-67
2022/10/16 02:22:34;;;;;;;14.73;8.73;;;;;;;;;;5009024;28;20054;-66
2022/10/16 02:25:19;;;;;;;13.07;9.55;;;;;;;;;;5006737;28;20042;-67
2022/10/16 02:27:51;;;;;;;16.17;9.43;;;;;;;;;;4994093;28;20118;-67
2022/10/16 02:30:25;;;;;;;14.73;8.75;;;;;;;;;;5007387;28;20053;-66
2022/10/16 02:32:53;;;;;;;18.17;9.65;;;;;;;;;;4997429;28;20054;-67
2022/10/16 02:35:21;;;;;;;19.65;9.57;;;;;;;;;;5002368;28;20411;-67
2022/10/16 02:37:49;;;;;;;14.63;9.10;;;;;;;;;;5010728;28;20066;-67
2022/10/16 02:40:16;;;;;;;14.80;8.38;;;;;;;;;;5005306;28;20458;-67
2022/10/16 02:42:43;;;;;;;12.82;8.60;;;;;;;;;;5011674;28;20152;-67
2022/10/16 02:45:10;;;;;;;12.50;8.55;;;;;;;;;;5010148;28;20121;-67
2022/10/16 02:47:36;;;;;;;14.10;8.48;;;;;;;;;;5008304;28;20057;-66
2022/10/16 02:50:03;;;;;;;12.65;8.70;;;;;;;;;;5009631;28;20049;-65
2022/10/16 02:52:29;;;;;;;17.50;8.70;;;;;;;;;;5006466;28;20054;-66
2022/10/16 02:54:54;;;;;;;13.60;8.52;;;;;;;;;;5000374;28;20054;-66
2022/10/16 02:57:20;;;;;;;16.67;9.18;;;;;;;;;;5008718;28;20049;-67
2022/10/16 02:59:46;;;;;;;14.05;8.82;;;;;;;;;;4997907;28;20516;-68
2022/10/16 03:02:13;;;;;;;15.50;9.13;;;;;;;;;;5009442;28;20078;-70
2022/10/16 03:04:39;;;;;;;13.27;8.20;;;;;;;;;;5008728;28;20092;-67
2022/10/16 03:07:05;;;;;;;12.70;8.23;;;;;;;;;;5006519;28;20042;-66
2022/10/16 03:09:30;;;;;;;17.67;9.35;;;;;;;;;;5004345;28;20045;-67
2022/10/16 03:11:56;;;;;;;16.20;9.40;;;;;;;;;;5009229;28;20058;-67
2022/10/16 03:14:22;;;;;;;14.10;9.70;;;;;;;;;;5007638;28;20073;-66
2022/10/16 03:16:48;;;;;;;16.48;9.93;;;;;;;;;;5001819;28;20090;-66
2022/10/16 03:19:16;;;;;;;19.45;8.98;;;;;;;;;;5005195;28;20479;-66
2022/10/16 03:21:42;;;;;;;14.57;8.98;;;;;;;;;;5010258;28;20499;-68
2022/10/16 03:24:08;;;;;;;19.55;8.75;;;;;;;;;;5009964;28;20038;-68
2022/10/16 03:26:34;;;;;;;11.00;8.07;;;;;;;;;;5008134;28;20053;-68
2022/10/16 03:28:59;;;;;;;17.17;8.65;;;;;;;;;;5005620;28;20551;-66
2022/10/16 03:31:25;;;;;;;13.82;7.65;;;;;;;;;;5003459;28;20050;-67
2022/10/16 03:33:51;;;;;;;13.68;7.93;;;;;;;;;;5002090;28;20037;-67
2022/10/16 03:36:17;;;;;;;12.27;7.55;;;;;;;;;;5004196;28;20092;-67
2022/10/16 03:38:43;;;;;;;14.73;7.93;;;;;;;;;;5002184;28;20053;-69
2022/10/16 03:41:09;;;;;;;13.85;7.95;;;;;;;;;;5008898;28;20057;-66
2022/10/16 03:43:34;;;;;;;13.70;7.43;;;;;;;;;;5003262;28;20046;-69
2022/10/16 03:46:00;;;;;;;13.15;6.97;;;;;;;;;;5003569;28;20144;-67
2022/10/16 03:48:26;;;;;;;9.63;6.93;;;;;;;;;;4999886;28;20149;-67
2022/10/16 03:50:53;;;;;;;12.75;6.43;;;;;;;;;;5006608;28;20077;-72
2022/10/16 03:53:18;;;;;;;10.60;6.47;;;;;;;;;;5010270;28;20073;-68
2022/10/16 03:55:44;;;;;;;12.38;6.63;;;;;;;;;;5011581;28;20073;-68
2022/10/16 03:58:10;;;;;;;10.52;6.13;;;;;;;;;;5006822;28;20042;-67
2022/10/16 04:00:44;;;;;;;11.75;6.15;;;;;;;;;;5006642;28;20042;-66
2022/10/16 04:03:11;;;;;;;10.48;6.05;;;;;;;;;;5007815;28;20046;-68
2022/10/16 04:05:37;;;;;;;9.70;6.05;;;;;;;;;;5002971;28;20060;-67
2022/10/16 04:08:04;;;;;;;11.07;6.00;;;;;;;;;;5006784;28;20515;-69
2022/10/16 04:10:30;;;;;;;12.25;5.70;;;;;;;;;;5008605;28;20050;-67
2022/10/16 04:12:55;;;;;;;11.30;5.72;;;;;;;;;;5009997;28;20107;-68
2022/10/16 04:15:25;;;;;;;11.50;6.00;;;;;;;;;;5009570;28;20499;-67
2022/10/16 04:17:52;;;;;;;13.18;6.18;;;;;;;;;;5002140;28;20258;-66
2022/10/16 04:20:18;;;;;;;11.18;6.38;;;;;;;;;;5007695;28;20088;-68
2022/10/16 04:22:44;;;;;;;15.27;6.47;;;;;;;;;;5006896;28;20111;-67
2022/10/16 04:25:11;;;;;;;20.65;5.88;;;;;;;;;;5005835;28;20054;-65
2022/10/16 04:27:38;;;;;;;11.77;5.78;;;;;;;;;;5008660;28;20081;-67
2022/10/16 04:30:05;;;;;;;12.43;5.80;;;;;;;;;;5002244;28;20046;-66
2022/10/16 04:32:30;;;;;;;14.55;4.88;;;;;;;;;;5005413;28;20046;-67
2022/10/16 04:34:56;;;;;;;14.43;5.82;;;;;;;;;;4997435;28;20038;-67
2022/10/16 04:37:26;;;;;;;12.50;5.03;;;;;;;;;;5005869;28;20054;-68
2022/10/16 04:39:53;;;;;;;9.50;4.50;;;;;;;;;;4997175;28;20062;-67
2022/10/16 04:42:19;;;;;;;10.27;4.90;;;;;;;;;;5006036;28;20056;-67
2022/10/16 04:44:45;;;;;;;9.02;3.92;;;;;;;;;;5002040;28;20052;-66
2022/10/16 04:47:11;;;;;;;10.23;3.75;;;;;;;;;;5008056;28;20042;-66
2022/10/16 04:49:37;;;;;;;11.48;3.83;;;;;;;;;;5006249;28;20058;-66
2022/10/16 04:52:03;;;;;;;8.48;4.20;;;;;;;;;;5005843;28;20061;-66
2022/10/16 04:54:29;;;;;;;12.25;3.95;;;;;;;;;;5006168;28;20577;-68
2022/10/16 04:56:55;;;;;;;13.95;3.90;;;;;;;;;;4999903;28;20042;-67
2022/10/16 04:59:22;;;;;;;12.10;4.20;;;;;;;;;;5005810;28;20137;-66
2022/10/16 05:01:48;;;;;;;12.27;4.30;;;;;;;;;;5005193;28;20065;-67
2022/10/16 05:04:15;;;;;;;10.05;3.33;;;;;;;;;;4999092;28;20530;-66
2022/10/16 05:06:41;;;;;;;7.75;3.10;;;;;;;;;;5004947;28;20050;-67
2022/10/16 05:09:08;;;;;;;13.68;3.88;;;;;;;;;;5005590;28;20057;-67
2022/10/16 05:11:34;;;;;;;9.65;3.47;;;;;;;;;;5005886;28;20052;-66
2022/10/16 05:14:01;;;;;;;7.32;2.90;;;;;;;;;;5002562;28;20049;-66
2022/10/16 05:16:27;;;;;;;7.78;2.83;;;;;;;;;;5007095;28;20466;-66
2022/10/16 05:18:54;;;;;;;13.23;3.50;;;;;;;;;;5004408;28;20049;-67
2022/10/16 05:21:20;;;;;;;8.93;3.35;;;;;;;;;;5000301;28;20046;-67
2022/10/16 05:23:46;;;;;;;11.88;3.22;;;;;;;;;;4996043;28;20742;-66
2022/10/16 05:26:12;;;;;;;7.30;3.40;;;;;;;;;;5003314;28;20044;-67
2022/10/16 05:28:38;;;;;;;8.15;3.13;;;;;;;;;;5002745;28;20169;-66
2022/10/16 05:31:08;;;;;;;8.95;3.00;;;;;;;;;;5001656;28;20129;-65
2022/10/16 05:33:35;;;;;;;8.70;2.65;;;;;;;;;;4995366;28;20138;-68
2022/10/16 05:36:08;;;;;;;7.22;2.85;;;;;;;;;;5006779;28;20049;-68
2022/10/16 05:38:36;;;;;;;18.90;4.03;;;;;;;;;;5005714;28;20052;-67
2022/10/16 05:41:03;;;;;;;8.15;3.13;;;;;;;;;;4997407;28;20418;-66
2022/10/16 05:43:30;;;;;;;8.23;2.92;;;;;;;;;;4998147;28;20042;-67
2022/10/16 05:46:06;;;;;;;7.47;2.90;;;;;;;;;;5005899;28;20061;-68
2022/10/16 05:48:32;;;;;;;9.23;3.22;;;;;;;;;;4999952;28;20496;-67
2022/10/16 05:51:09;;;;;;;7.05;3.20;;;;;;;;;;5002655;28;20152;-67
2022/10/16 05:53:37;;;;;;;10.20;3.30;;;;;;;;;;5006326;28;20053;-65
2022/10/16 05:56:04;;;;;;;9.38;3.20;;;;;;;;;;4994543;28;20476;-67
2022/10/16 05:58:33;;;;;;;10.70;3.40;;;;;;;;;;5007033;28;20057;-66
2022/10/16 06:01:06;;;;;;;10.15;3.17;;;;;;;;;;4999231;28;20129;-66
2022/10/16 06:03:33;;;;;;;8.00;3.70;;;;;;;;;;5003696;28;20046;-68
2022/10/16 06:05:59;;;;;;;10.20;3.38;;;;;;;;;;4991244;28;20496;-66
2022/10/16 06:08:25;;;;;;;10.07;3.67;;;;;;;;;;5005404;28;20049;-65
2022/10/16 06:11:02;;;;;;;12.82;3.88;;;;;;;;;;5008020;28;20045;-67
2022/10/16 06:13:28;;;;;;;11.43;3.55;;;;;;;;;;5003427;28;20131;-66
2022/10/16 06:15:58;;;;;;;15.65;4.25;;;;;;;;;;5009133;28;20057;-67
2022/10/16 06:18:24;;;;;;;15.70;3.33;;;;;;;;;;4984351;28;20118;-67
2022/10/16 06:20:50;;;;;;;10.95;3.95;;;;;;;;;;4993219;28;20043;-66
2022/10/16 06:23:16;;;;;;;12.43;3.85;;;;;;;;;;4991886;28;20420;-67
2022/10/16 06:25:42;;;;;;;11.77;4.15;;;;;;;;;;4990889;28;20062;-67
2022/10/16 06:28:08;;;;;;;10.57;3.72;;;;;;;;;;4991125;28;20043;-67
2022/10/16 06:30:33;;;;;;;13.43;3.75;;;;;;;;;;4991603;28;20480;-66
2022/10/16 06:32:59;;;;;;;16.92;4.22;;;;;;;;;;4993605;28;20035;-68
2022/10/16 06:35:25;;;;;;;12.57;4.20;;;;;;;;;;4979014;28;20051;-68
2022/10/16 06:37:53;;;;;;;15.10;4.78;;;;;;;;;;4991798;28;20378;-68
2022/10/16 06:40:19;;;;;;;12.77;3.80;;;;;;;;;;4985185;28;20105;-66
2022/10/16 06:42:45;;;;;;;11.25;4.57;;;;;;;;;;4979959;28;20444;-68
2022/10/16 06:45:11;;;;;;;10.35;4.00;;;;;;;;;;4987119;28;20081;-68
2022/10/16 06:47:37;;;;;;;16.23;4.05;;;;;;;;;;4985153;28;20046;-66
2022/10/16 06:50:06;;;;;;;13.93;5.35;;;;;;;;;;4988224;28;20052;-69
2022/10/16 06:52:33;;;;;;;13.00;4.07;;;;;;;;;;4988482;28;20042;-67
2022/10/16 06:54:59;;;;;;;16.90;4.13;;;;;;;;;;4993498;28;20042;-66
2022/10/16 06:57:26;;;;;;;14.18;4.20;;;;;;;;;;4988777;28;20093;-67
2022/10/16 06:59:51;;;;;;;16.90;4.40;;;;;;;;;;4987108;28;20408;-66
2022/10/16 07:02:17;;;;;;;12.15;4.43;;;;;;;;;;4982592;28;20057;-68
2022/10/16 07:04:43;;;;;;;12.50;4.47;;;;;;;;;;4989243;28;20049;-67
2022/10/16 07:07:09;;;;;;;14.93;4.93;;;;;;;;;;4986931;28;20378;-67
2022/10/16 07:09:34;;;;;;;12.02;5.18;;;;;;;;;;4974243;28;20056;-67
2022/10/16 07:12:00;;;;;;;13.25;4.70;;;;;;;;;;4974935;28;20673;-67
2022/10/16 07:14:26;;;;;;;12.57;5.05;;;;;;;;;;4972399;28;20054;-66
2022/10/16 07:16:52;;;;;;;14.48;4.63;;;;;;;;;;4978570;28;20065;-67
2022/10/16 07:19:18;;;;;;;10.75;4.57;;;;;;;;;;4993207;28;20054;-67
2022/10/16 07:21:44;;;;;;;15.52;4.85;;;;;;;;;;4998834;28;20046;-67
2022/10/16 07:24:19;;;;;;;12.02;4.88;;;;;;;;;;5001900;28;20129;-69
2022/10/16 07:26:45;;;;;;;15.07;5.57;;;;;;;;;;4995134;28;20955;-71
2022/10/16 07:29:18;;;;;;;11.63;4.80;;;;;;;;;;4992997;28;20137;-68
2022/10/16 07:31:45;;;;;;;9.90;4.30;;;;;;;;;;4991692;28;20101;-68
2022/10/16 07:34:13;;;;;;;10.82;5.10;;;;;;;;;;4989869;28;20057;-67
2022/10/16 07:36:39;;;;;;;14.75;4.97;;;;;;;;;;4994424;28;20065;-67
2022/10/16 07:39:06;;;;;;;14.07;5.10;;;;;;;;;;4996054;28;20067;-71
2022/10/16 07:41:36;;;;;;;18.65;5.95;;;;;;;;;;4995060;28;20066;-69
2022/10/16 07:44:03;;;;;;;11.52;5.18;;;;;;;;;;4989773;28;20371;-68
2022/10/16 07:46:29;;;;;;;13.63;4.82;;;;;;;;;;4997231;28;20123;-69
2022/10/16 07:48:55;;;;;;;10.68;4.45;;;;;;;;;;4989152;28;20084;-71
2022/10/16 07:51:24;;;;;;;16.05;4.95;;;;;;;;;;4996209;28;20401;-69
2022/10/16 07:53:50;;;;;;;13.55;4.95;;;;;;;;;;4994794;28;20609;-67
2022/10/16 07:56:18;;;;;;;13.40;5.45;;;;;;;;;;4993233;28;20149;-68
2022/10/16 07:58:44;;;;;;;16.88;5.85;;;;;;;;;;4994156;28;20065;-69
2022/10/16 08:01:15;;;;;;;16.73;5.45;;;;;;;;;;4995378;28;20050;-69
2022/10/16 08:03:49;;;;;;;10.48;5.50;;;;;;;;;;4994817;28;20050;-70
2022/10/16 08:06:15;;;;;;;15.45;5.88;;;;;;;;;;4994221;28;20553;-68
2022/10/16 08:08:41;;;;;;;16.40;5.22;;;;;;;;;;4990979;28;20050;-69
2022/10/16 08:11:08;;;;;;;12.52;4.97;;;;;;;;;;4990642;28;20510;-66
2022/10/16 08:13:33;;;;;;;16.98;4.93;;;;;;;;;;4998204;28;20296;-69
2022/10/16 08:16:01;;;;;;;12.35;5.20;;;;;;;;;;4994487;28;20042;-70
2022/10/16 08:18:27;;;;;;;12.57;4.85;;;;;;;;;;4989543;28;20042;-67
2022/10/16 08:20:58;;;;;;;19.92;5.72;;;;;;;;;;4994750;28;20532;-71
2022/10/16 08:23:25;;;;;;;16.45;5.18;;;;;;;;;;4993350;28;20165;-69
2022/10/16 08:25:53;;;;;;;11.90;5.45;;;;;;;;;;4992970;28;20058;-69
2022/10/16 08:28:19;;;;;;;10.27;5.25;;;;;;;;;;4987927;28;20057;-69
2022/10/16 08:30:45;;;;;;;11.10;5.30;;;;;;;;;;4992374;28;20081;-69
2022/10/16 08:33:11;;;;;;;10.05;5.28;;;;;;;;;;4997578;28;20042;-68
2022/10/16 08:35:37;;;;;;;15.95;5.15;;;;;;;;;;4999706;28;20046;-69
2022/10/16 08:38:04;;;;;;;17.25;5.68;;;;;;;;;;4992579;28;20487;-70
2022/10/16 08:40:34;;;;;;;19.17;5.28;;;;;;;;;;4988949;28;20054;-67
2022/10/16 08:43:14;;;;;;;16.17;5.78;;;;;;;;;;4996969;28;20616;-69
2022/10/16 08:45:50;;;;;;;10.50;5.70;;;;;;;;;;4991294;28;20057;-68
2022/10/16 08:48:21;;;;;;;13.98;6.70;;;;;;;;;;4985213;28;20196;-69
2022/10/16 08:50:49;;;;;;;14.20;5.60;;;;;;;;;;4991400;28;20531;-70
2022/10/16 08:53:20;;;;;;;13.07;6.22;;;;;;;;;;4993230;28;20053;-67
2022/10/16 08:55:50;;;;;;;11.73;6.30;;;;;;;;;;4993274;28;21000;-74
2022/10/16 08:58:22;;;;;;;9.52;6.18;;;;;;;;;;4994139;28;20045;-68
2022/10/16 09:00:58;;;;;;;20.98;6.60;;;;;;;;;;5007182;28;20053;-67
2022/10/16 09:03:36;;;;;;;15.77;6.35;;;;;;;;;;4998712;28;20053;-69
2022/10/16 09:06:13;;;;;;;14.73;6.70;;;;;;;;;;5008454;28;20392;-70
2022/10/16 09:09:03;;;;;;;12.15;6.13;;;;;;;;;;5010127;28;20396;-69
2022/10/16 09:11:57;;;;;;;18.98;6.50;;;;;;;;;;5007337;28;20054;-67
2022/10/16 09:14:37;;;;;;;16.73;6.55;;;;;;;;;;5004861;28;20484;-69
2022/10/16 09:17:12;;;;;;;18.02;6.97;;;;;;;;;;5001905;28;20132;-69
2022/10/16 09:19:46;;;;;;;18.27;6.75;;;;;;;;;;5006458;28;20050;-67
2022/10/16 09:22:16;;;;;;;17.23;6.47;;;;;;;;;;5005817;28;20053;-71
2022/10/16 09:24:42;;;;;;;14.95;7.32;;;;;;;;;;5004381;28;20084;-68
2022/10/16 09:27:13;;;;;;;21.55;9.52;;;;;;;;;;5000227;28;20053;-67
2022/10/16 09:29:40;;;;;;;22.55;8.27;;;;;;;;;;5001085;28;20047;-69
2022/10/16 09:32:14;;;;;;;19.00;7.25;;;;;;;;;;5003148;28;20057;-70
2022/10/16 09:34:47;;;;;;;21.95;6.43;;;;;;;;;;5005613;28;20045;-68
2022/10/16 09:37:17;;;;;;;12.50;6.25;;;;;;;;;;5008269;28;20046;-68
2022/10/16 09:39:47;;;;;;;17.98;5.93;;;;;;;;;;5005054;28;20576;-69
2022/10/16 09:42:46;;;;;;;10.98;5.72;;;;;;;;;;5011491;28;20042;-68
2022/10/16 09:45:23;;;;;;;12.43;6.38;;;;;;;;;;4997970;28;20521;-71
2022/10/16 09:47:50;;;;;;;16.77;6.57;;;;;;;;;;5007741;28;20325;-69
2022/10/16 09:50:23;;;;;;;16.88;6.85;;;;;;;;;;5007212;28;20048;-69
2022/10/16 09:52:48;;;;;;;14.68;6.68;;;;;;;;;;5008676;28;20602;-72
2022/10/16 09:55:17;;;;;;;17.20;6.70;;;;;;;;;;5006466;28;21524;-71
2022/10/16 09:57:53;;;;;;;18.92;6.45;;;;;;;;;;5004220;28;20527;-67
2022/10/16 10:00:20;;;;;;;19.50;7.35;;;;;;;;;;5004573;28;20046;-69
2022/10/16 10:02:46;;;;;;;13.88;6.18;;;;;;;;;;5010425;28;20064;-68
2022/10/16 10:05:30;;;;;;;14.55;6.28;;;;;;;;;;5006664;28;20054;-71
2022/10/16 10:07:59;;;;;;;14.18;5.80;;;;;;;;;;4998168;28;20505;-70
2022/10/16 10:10:27;;;;;;;16.05;6.03;;;;;;;;;;5011415;28;20511;-69
2022/10/16 10:12:55;;;;;;;11.63;6.22;;;;;;;;;;5007290;28;20128;-69
2022/10/16 10:15:23;;;;;;;13.73;6.30;;;;;;;;;;5005399;28;20046;-68
2022/10/16 10:17:59;;;;;;;13.35;6.13;;;;;;;;;;5006768;28;20377;-68
2022/10/16 10:20:32;;;;;;;15.98;6.40;;;;;;;;;;5006776;28;20053;-69
2022/10/16 10:22:58;;;;;;;17.83;6.77;;;;;;;;;;5007587;28;20072;-69
2022/10/16 10:25:27;;;;;;;15.52;7.43;;;;;;;;;;5002870;28;20283;-69
2022/10/16 10:28:21;;;;;;;16.27;7.55;;;;;;;;;;5002179;28;20041;-70
2022/10/16 10:30:55;;;;;;;19.23;6.88;;;;;;;;;;5010546;28;20042;-68
2022/10/16 10:33:24;;;;;;;15.13;7.60;;;;;;;;;;5008835;28;20073;-67
2022/10/16 10:36:00;;;;;;;17.63;7.85;;;;;;;;;;5009124;28;20046;-71
2022/10/16 10:38:29;;;;;;;20.45;7.82;;;;;;;;;;4992337;28;20050;-73
2022/10/16 10:41:30;;;;;;;17.08;7.03;;;;;;;;;;5007930;28;20173;-67
2022/10/16 10:44:23;;;;;;;12.82;7.85;;;;;;;;;;4988726;28;20053;-68
2022/10/16 10:46:53;;;;;;;16.83;7.50;;;;;;;;;;5000322;28;20057;-68
2022/10/16 10:49:43;;;;;;;20.58;7.25;;;;;;;;;;5007419;28;20061;-70
2022/10/16 10:52:21;;;;;;;15.63;8.27;;;;;;;;;;5011550;28;20050;-68
2022/10/16 10:55:16;;;;;;;14.07;6.50;;;;;;;;;;5007967;28;20124;-70
2022/10/16 10:58:18;;;;;;;10.63;6.63;;;;;;;;;;5013178;28;20096;-69
2022/10/16 11:00:57;;;;;;;13.73;6.82;;;;;;;;;;5010651;28;20132;-65
2022/10/16 11:04:00;;;;;;;14.18;6.75;;;;;;;;;;5012099;28;20046;-64
2022/10/16 11:06:48;;;;;;;12.70;6.47;;;;;;;;;;4994104;28;20402;-64
2022/10/16 11:09:17;;;;;;;18.48;7.28;;;;;;;;;;5009571;28;20092;-66
2022/10/16 11:11:52;;;;;;;13.00;5.88;;;;;;;;;;5012771;28;20088;-65
2022/10/16 11:14:34;;;;;;;16.05;6.63;;;;;;;;;;5009390;28;20053;-67
2022/10/16 11:17:10;;;;;;;16.55;7.07;;;;;;;;;;5001123;28;20058;-67
2022/10/16 11:20:03;;;;;;;12.90;6.45;;;;;;;;;;5009910;28;20042;-62
2022/10/16 11:22:34;;;;;;;13.23;6.45;;;;;;;;;;5002382;28;20085;-66
2022/10/16 11:25:14;;;;;;;14.18;5.85;;;;;;;;;;5008227;28;20065;-70
2022/10/16 11:28:15;;;;;;;14.63;5.90;;;;;;;;;;4999206;28;20064;-67
2022/10/16 11:30:54;;;;;;;14.60;5.97;;;;;;;;;;4977216;28;20142;-69
2022/10/16 11:33:27;;;;;;;14.48;5.70;;;;;;;;;;4977775;28;20078;-72
2022/10/16 11:36:11;;;;;;;12.77;5.90;;;;;;;;;;4968109;28;20043;-69
2022/10/16 11:38:54;;;;;;;12.40;5.70;;;;;;;;;;4968849;28;20069;-72
2022/10/16 11:41:35;;;;;;;12.95;5.55;;;;;;;;;;4968396;28;20055;-72
2022/10/16 11:44:20;;;;;;;11.90;5.35;;;;;;;;;;4969978;28;20159;-71
2022/10/16 11:46:57;;;;;;;14.38;5.32;;;;;;;;;;4977588;28;20046;-71
2022/10/16 11:49:26;;;;;;;12.48;5.13;;;;;;;;;;4971557;28;20051;-72
2022/10/16 11:52:42;;;;;;;18.95;5.18;;;;;;;;;;4971963;28;20042;-70
2022/10/16 11:55:08;;;;;;;10.15;4.80;;;;;;;;;;4965502;28;20057;-72
2022/10/16 11:57:42;;;;;;;13.27;5.20;;;;;;;;;;4968540;28;20050;-71
2022/10/16 12:00:19;;;;;;;13.77;4.95;;;;;;;;;;4960529;28;20480;-71
2022/10/16 12:02:48;;;;;;;11.68;4.88;;;;;;;;;;4987436;28;20145;-72
2022/10/16 12:05:29;;;;;;;8.32;4.60;;;;;;;;;;4983372;28;20054;-72
2022/10/16 12:08:10;;;;;;;11.32;4.47;;;;;;;;;;4995624;28;20471;-73
2022/10/16 12:10:37;;;;;;;19.48;4.93;;;;;;;;;;5008986;28;20068;-72
2022/10/16 12:13:30;;;;;;;13.15;5.28;;;;;;;;;;5008684;28;20053;-71
2022/10/16 12:16:06;;;;;;;11.60;5.40;;;;;;;;;;5004799;28;20323;-71
2022/10/16 12:18:33;;;;;;;11.70;5.25;;;;;;;;;;5008324;28;20046;-69
2022/10/16 12:21:05;;;;;;;13.63;5.00;;;;;;;;;;5009178;28;20050;-76
2022/10/16 12:23:46;;;;;;;11.02;4.78;;;;;;;;;;5007597;28;20053;-71
2022/10/16 12:26:13;;;;;;;9.45;4.35;;;;;;;;;;5007959;28;20415;-73
2022/10/16 12:28:40;;;;;;;12.02;4.80;;;;;;;;;;5005399;28;20062;-72
2022/10/16 12:31:09;;;;;;;10.48;4.13;;;;;;;;;;4996364;28;20069;-71
2022/10/16 12:33:41;;;;;;;14.02;5.07;;;;;;;;;;4998626;28;20487;-72
2022/10/16 12:36:33;;;;;;;12.38;4.63;;;;;;;;;;4998393;28;20046;-73
2022/10/16 12:39:00;;;;;;;10.82;5.18;;;;;;;;;;5009637;28;20081;-71
2022/10/16 12:41:30;;;;;;;15.60;4.90;;;;;;;;;;5010231;28;20419;-71
2022/10/16 12:43:57;;;;;;;14.15;4.82;;;;;;;;;;5011983;28;20105;-70
2022/10/16 12:46:29;;;;;;;9.95;4.57;;;;;;;;;;5013737;28;20038;-70
2022/10/16 12:49:15;;;;;;;15.80;5.60;;;;;;;;;;5011476;28;20049;-72
2022/10/16 12:51:42;;;;;;;11.25;4.13;;;;;;;;;;5009472;28;20046;-70
2022/10/16 12:54:18;;;;;;;19.70;4.95;;;;;;;;;;5004900;28;20064;-71
2022/10/16 12:56:47;;;;;;;12.43;4.28;;;;;;;;;;5009017;28;20068;-72
2022/10/16 12:59:21;;;;;;;16.13;4.15;;;;;;;;;;5008586;28;20057;-70
2022/10/16 13:02:06;;;;;;;12.48;4.82;;;;;;;;;;5013087;28;20132;-73
2022/10/16 13:05:09;;;;;;;16.50;4.70;;;;;;;;;;5010882;28;20061;-70
2022/10/16 13:08:05;;;;;;;17.15;4.70;;;;;;;;;;4994654;28;20068;-72
2022/10/16 13:10:46;;;;;;;13.25;3.95;;;;;;;;;;5009189;28;20046;-69
2022/10/16 13:13:35;;;;;;;9.65;3.92;;;;;;;;;;5006999;28;20411;-71
2022/10/16 13:16:06;;;;;;;11.90;4.18;;;;;;;;;;5002713;28;20469;-70
2022/10/16 13:18:50;;;;;;;10.23;3.78;;;;;;;;;;5011255;28;20050;-73
2022/10/16 13:21:35;;;;;;;12.43;4.15;;;;;;;;;;4998528;28;20059;-71
2022/10/16 13:24:01;;;;;;;12.45;3.80;;;;;;;;;;4999069;28;20446;-70
2022/10/16 13:26:48;;;;;;;11.25;3.70;;;;;;;;;;5009892;28;20096;-71
2022/10/16 13:29:15;;;;;;;11.23;3.63;;;;;;;;;;5011579;28;20056;-71
2022/10/16 13:31:43;;;;;;;9.10;3.67;;;;;;;;;;5012154;28;20058;-72
2022/10/16 13:34:19;;;;;;;10.27;3.70;;;;;;;;;;5005334;28;20514;-70
2022/10/16 13:36:50;;;;;;;12.10;3.60;;;;;;;;;;5002627;28;20038;-71
2022/10/16 13:39:26;;;;;;;11.63;3.55;;;;;;;;;;5010001;28;20131;-73
2022/10/16 13:42:10;;;;;;;10.65;3.88;;;;;;;;;;5012848;28;20133;-76
2022/10/16 13:44:42;;;;;;;11.95;3.40;;;;;;;;;;5014031;28;20052;-71
2022/10/16 13:47:20;;;;;;;10.93;3.35;;;;;;;;;;5012581;28;20053;-71
2022/10/16 13:49:47;;;;;;;12.32;4.35;;;;;;;;;;5006090;28;20042;-73
2022/10/16 13:52:20;;;;;;;8.68;3.00;;;;;;;;;;5006771;28;20403;-72
2022/10/16 13:54:46;;;;;;;;;;;;;;;;;;5015262;28;20044;-70
2022/10/16 13:57:14;;;;;;;10.45;3.65;;;;;;;;;;5016727;28;19925;-74
2022/10/16 13:59:41;;;;;;;11.88;3.10;;;;;;;;;;5014648;28;20073;-71
2022/10/16 14:02:26;;;;;;;13.65;3.70;;;;;;;;;;5015163;28;20050;-70
2022/10/16 14:04:53;;;;;;;9.02;3.33;;;;;;;;;;5011812;28;20061;-71
2022/10/16 14:07:31;;;;;;;7.93;3.15;;;;;;;;;;5009348;28;20046;-72
2022/10/16 14:10:03;;;;;;;6.85;3.05;;;;;;;;;;5013280;28;20053;-71
2022/10/16 14:12:29;;;;;;;9.65;2.85;;;;;;;;;;5016057;28;20161;-73
2022/10/16 14:14:58;;;;;;;12.23;3.47;;;;;;;;;;5016940;28;20829;-72
2022/10/16 14:17:35;;;;;;;8.95;2.90;;;;;;;;;;5016248;28;20104;-75
2022/10/16 14:20:04;;;;;;;12.23;3.35;;;;;;;;;;5016632;28;20049;-71
2022/10/16 14:22:35;;;;;;;10.68;2.72;;;;;;;;;;5015742;28;20192;-72
2022/10/16 14:25:22;;;;;;;10.98;3.10;;;;;;;;;;5015649;28;20590;-73
2022/10/16 14:27:58;;;;;;;13.65;3.13;;;;;;;;;;5015257;28;20137;-72
2022/10/16 14:30:24;;;;;;;11.35;3.10;;;;;;;;;;5003882;28;20068;-73
2022/10/16 14:32:57;;;;;;;10.27;3.10;;;;;;;;;;5014403;28;20116;-71
2022/10/16 14:35:26;;;;;;;13.52;3.13;;;;;;;;;;5015504;28;20129;-71
2022/10/16 14:37:54;;;;;;;5.82;2.92;;;;;;;;;;5014993;28;20102;-72
2022/10/16 14:40:25;;;;;;;13.20;3.58;;;;;;;;;;5012449;28;20054;-73
2022/10/16 14:42:52;;;;;;;12.25;3.20;;;;;;;;;;5004576;28;20045;-73
2022/10/16 14:45:26;;;;;;;9.63;3.67;;;;;;;;;;5011378;28;20057;-74
2022/10/16 14:48:00;;;;;;;13.77;3.45;;;;;;;;;;5012722;28;20046;-73
2022/10/16 14:50:26;;;;;;;11.98;3.97;;;;;;;;;;5012353;28;20125;-75
2022/10/16 14:52:52;;;;;;;8.63;3.22;;;;;;;;;;5012553;28;20110;-73
2022/10/16 14:55:18;;;;;;;11.05;3.40;;;;;;;;;;4994813;28;20062;-73